Stations météo

réclame
Mon MeteoGroup
Leuchtturm Alte Weser, Allemagne (10124): Température de l'air & dewpoint: 10.08.2018 03:00:00 - 16.08.2018 03:00:00 (CEST)Leuchtturm Alte Weser, Allemagne (10124): Vitesse du vent & gusts: 10.08.2018 03:00:00 - 16.08.2018 03:00:00 (CEST)Leuchtturm Alte Weser, Allemagne (10124): Direction du vent: 10.08.2018 03:00:00 - 16.08.2018 03:00:00 (CEST)Leuchtturm Alte Weser, Allemagne (10124): reduced air pressure: 10.08.2018 03:00:00 - 16.08.2018 03:00:00 (CEST)Leuchtturm Alte Weser, Allemagne (10124): Ensoleillement: 10.08.2018 03:00:00 - 16.08.2018 03:00:00 (CEST)
Date & Time tt [°C] td [°C] ff [km/h] ff [knt] fx [km/h] fx [knt] dd ppp [hPa] sd [min]
16.08.2018 03:00:00 19,1 16,3 22 12 - - SSW 1016,4 0
16.08.2018 02:00:00 19,3 16,6 18 10 - - SW 1016,7 0
16.08.2018 01:00:00 19,7 16,7 25 14 - - WSW 1016,8 0
16.08.2018 00:00:00 19,8 18,5 7 4 - - SW 1016,9 0
15.08.2018 23:00:00 20,0 18,2 7 4 - - WSW 1017,0 0
15.08.2018 22:00:00 20,3 17,7 7 4 - - W 1017,0 0
15.08.2018 21:00:00 20,7 17,3 7 4 - - SSW 1016,9 0
15.08.2018 20:00:00 20,0 17,1 7 4 - - W 1016,8 0
15.08.2018 19:00:00 20,7 16,9 7 4 - - SE 1016,9 0
15.08.2018 18:00:00 20,9 17,3 4 2 - - S 1017,0 6
15.08.2018 17:00:00 20,2 17,3 7 4 - - WNW 1017,1 18
15.08.2018 16:00:00 20,2 17,7 11 6 - - WNW 1017,1 60
15.08.2018 15:00:00 20,1 17,4 11 6 - - WSW 1017,2 60
15.08.2018 14:00:00 19,8 17,4 18 10 - - W 1017,0 42
15.08.2018 13:00:00 19,6 17,4 18 10 - - WSW 1016,9 36
15.08.2018 12:00:00 18,9 16,7 29 16 - - SW 1016,7 6
15.08.2018 11:00:00 18,5 16,6 25 14 - - SW 1016,8 0
15.08.2018 10:00:00 18,1 16,3 29 16 - - SW 1016,3 0
15.08.2018 09:00:00 17,7 16,5 25 14 - - SW 1015,8 0
15.08.2018 08:00:00 17,5 16,8 32 18 - - SW 1015,4 0
15.08.2018 07:00:00 18,2 16,6 18 10 - - SW 1015,1 0
15.08.2018 06:00:00 17,8 16,9 22 12 - - WSW 1015,1 0
15.08.2018 05:00:00 17,3 16,2 29 16 - - SW 1015,0 0
15.08.2018 04:00:00 17,1 16,3 29 16 50 27 SW 1015,0 0
15.08.2018 03:00:00 17,1 15,9 36 19 47 25 SW 1014,9 0
15.08.2018 02:00:00 18,7 15,1 25 14 - - W 1015,1 0
15.08.2018 01:00:00 18,6 14,0 29 16 - - W 1014,9 0
15.08.2018 00:00:00 18,4 14,6 29 16 - - WNW 1014,8 0
14.08.2018 23:00:00 18,3 14,3 36 19 - - WNW 1014,5 0
14.08.2018 22:00:00 18,3 13,6 40 21 50 27 WNW 1014,4 0
14.08.2018 21:00:00 18,3 14,4 47 25 54 29 WNW 1013,6 0
14.08.2018 20:00:00 18,5 15,6 43 23 - - WNW 1012,8 0
14.08.2018 19:00:00 18,5 15,6 47 25 61 33 WNW 1012,3 0
14.08.2018 18:00:00 18,1 17,3 47 25 61 33 WNW 1011,8 18
14.08.2018 17:00:00 19,2 16,4 36 19 - - WNW 1011,1 12
14.08.2018 16:00:00 19,1 16,4 32 18 - - WNW 1010,7 18
14.08.2018 15:00:00 19,0 16,8 32 18 - - W 1010,2 54
14.08.2018 14:00:00 19,0 16,3 32 18 - - WNW 1009,6 60
14.08.2018 13:00:00 18,8 16,8 29 16 - - WNW 1009,0 60
14.08.2018 12:00:00 18,5 16,8 22 12 - - WNW 1008,5 60
14.08.2018 11:00:00 18,6 16,4 14 8 - - NW 1007,9 30
14.08.2018 10:00:00 18,1 17,3 22 12 - - WSW 1007,3 0
14.08.2018 09:00:00 17,5 17,2 32 18 - - WSW 1006,7 0
14.08.2018 08:00:00 17,2 17,1 32 18 - - SW 1006,0 12
14.08.2018 07:00:00 17,5 16,9 29 16 - - SW 1005,8 0
14.08.2018 06:00:00 17,4 17,0 36 19 - - SW 1005,3 0
14.08.2018 05:00:00 17,7 17,0 29 16 - - SW 1005,3 0
14.08.2018 04:00:00 17,6 17,1 32 18 - - SW 1005,2 0
14.08.2018 03:00:00 17,8 17,8 32 18 - - SW 1005,0 0
14.08.2018 02:00:00 18,7 16,2 32 18 - - W 1005,1 0
14.08.2018 01:00:00 18,6 15,9 36 19 - - W 1004,6 0
14.08.2018 00:00:00 18,2 17,4 25 14 - - WSW 1004,4 0
13.08.2018 23:00:00 18,3 17,5 22 12 - - SW 1004,2 0
13.08.2018 22:00:00 18,5 17,1 25 14 - - SSW 1004,0 0
13.08.2018 21:00:00 18,4 17,5 25 14 - - SSW 1003,7 0
13.08.2018 20:00:00 18,0 16,6 7 4 - - SE 1003,6 0
13.08.2018 19:00:00 18,5 16,6 11 6 - - W 1004,0 0
13.08.2018 18:00:00 20,3 14,5 18 10 - - E 1003,2 0
13.08.2018 17:00:00 20,7 15,0 22 12 - - ESE 1003,7 36
13.08.2018 16:00:00 21,7 15,5 14 8 - - SSE 1004,3 18
13.08.2018 15:00:00 19,9 14,4 7 4 - - S 1004,9 0
13.08.2018 14:00:00 19,6 15,6 22 12 - - S 1005,3 0
13.08.2018 13:00:00 20,2 14,5 11 6 - - SSE 1005,1 0
13.08.2018 12:00:00 19,6 14,2 18 10 - - SE 1005,2 0
13.08.2018 11:00:00 19,4 14,0 14 8 - - ESE 1005,5 0
13.08.2018 10:00:00 19,9 13,4 22 12 - - SSE 1005,7 0
13.08.2018 09:00:00 19,8 14,3 14 8 - - SSE 1005,9 0
13.08.2018 08:00:00 19,9 14,9 14 8 - - SE 1005,8 0
13.08.2018 07:00:00 19,4 15,7 18 10 - - ESE 1005,6 0
13.08.2018 06:00:00 19,7 15,1 22 12 - - ESE 1006,3 0
13.08.2018 05:00:00 20,1 14,7 18 10 - - ESE 1006,7 0
13.08.2018 04:00:00 20,5 14,9 7 4 - - ESE 1007,5 0
13.08.2018 03:00:00 20,6 16,6 11 6 - - ESE 1008,0 0
13.08.2018 02:00:00 21,3 13,9 7 4 - - E 1008,5 0
13.08.2018 01:00:00 21,1 14,0 7 4 - - SE 1009,1 0
13.08.2018 00:00:00 21,4 13,4 7 4 - - WSW 1009,5 0
12.08.2018 23:00:00 21,5 14,4 11 6 - - W 1009,9 0
12.08.2018 22:00:00 21,6 14,6 7 4 - - SW 1010,1 0
12.08.2018 21:00:00 21,8 14,6 14 8 - - SW 1010,2 0
12.08.2018 20:00:00 21,6 14,9 22 12 - - W 1010,3 0
12.08.2018 19:00:00 22,4 14,1 29 16 - - SW 1010,6 6
12.08.2018 18:00:00 21,8 14,7 29 16 - - SW 1011,1 30
12.08.2018 17:00:00 20,8 14,2 32 18 - - S 1011,6 54
12.08.2018 16:00:00 19,6 13,6 29 16 - - S 1012,5 6
12.08.2018 15:00:00 18,4 12,7 25 14 - - S 1013,5 0
12.08.2018 14:00:00 17,7 12,5 22 12 - - S 1014,3 0
12.08.2018 13:00:00 16,6 11,8 14 8 - - S 1014,8 0
12.08.2018 12:00:00 17,5 9,8 22 12 - - SSW 1015,3 0
12.08.2018 11:00:00 16,5 10,2 22 12 - - SSW 1015,9 0
12.08.2018 10:00:00 16,1 10,7 25 14 - - SSW 1016,0 18
12.08.2018 09:00:00 15,6 10,4 29 16 - - SSW 1016,3 48
12.08.2018 08:00:00 15,1 11,4 32 18 - - SSW 1016,5 6
12.08.2018 07:00:00 15,0 11,1 32 18 - - SW 1016,8 0
12.08.2018 06:00:00 15,2 11,4 32 18 - - SW 1016,8 0
12.08.2018 05:00:00 15,6 11,9 32 18 - - SW 1017,3 0
12.08.2018 04:00:00 15,7 11,6 32 18 - - SW 1017,6 0
12.08.2018 03:00:00 16,2 12,4 36 19 - - SW 1017,9 0
12.08.2018 02:00:00 16,6 12,9 29 16 - - WSW 1018,3 0
12.08.2018 01:00:00 17,4 10,5 32 18 - - W 1018,8 0
12.08.2018 00:00:00 16,6 13,1 32 18 65 35 WNW 1019,3 0
11.08.2018 23:00:00 17,4 12,5 32 18 - - WNW 1019,2 0
11.08.2018 22:00:00 17,2 11,0 40 21 - - W 1019,3 0
11.08.2018 21:00:00 16,6 12,1 25 14 - - W 1019,4 6
11.08.2018 20:00:00 17,6 10,8 36 19 - - W 1019,1 42
11.08.2018 19:00:00 17,8 11,0 40 21 50 27 WNW 1019,2 54
11.08.2018 18:00:00 - - - - - - - - -
11.08.2018 17:00:00 17,6 9,7 43 23 - - WNW 1018,7 30
11.08.2018 16:00:00 15,8 12,4 50 27 94 51 W 1018,2 0
11.08.2018 15:00:00 17,3 11,5 50 27 65 35 W 1017,3 54
11.08.2018 14:00:00 17,3 11,9 54 29 - - W 1017,2 48
11.08.2018 13:00:00 16,9 10,1 54 29 65 35 W 1016,8 48
11.08.2018 12:00:00 16,3 11,1 50 27 61 33 W 1016,3 6
11.08.2018 11:00:00 15,4 10,6 50 27 - - W 1015,9 12
11.08.2018 10:00:00 14,0 12,4 54 29 68 37 SW 1015,4 0
11.08.2018 09:00:00 14,5 12,3 40 21 54 29 SW 1015,7 30
11.08.2018 08:00:00 13,9 12,5 47 25 - - SW 1015,2 0
11.08.2018 07:00:00 13,7 12,3 47 25 61 33 SW 1015,1 0
11.08.2018 06:00:00 14,0 12,9 47 25 58 31 SW 1015,0 0
11.08.2018 05:00:00 13,6 11,6 50 27 - - SSW 1015,1 0
11.08.2018 04:00:00 14,1 10,7 40 21 54 29 SSW 1015,6 0
11.08.2018 03:00:00 14,8 10,4 43 23 58 31 SW 1015,7 0
11.08.2018 02:00:00 16,0 12,3 47 25 - - SW 1016,0 0
11.08.2018 01:00:00 16,7 12,6 40 21 65 35 SW 1016,9 0
11.08.2018 00:00:00 18,8 11,4 40 21 50 27 SSE 1016,1 0
10.08.2018 23:00:00 18,1 12,0 29 16 - - SSE 1017,3 0
10.08.2018 22:00:00 17,7 11,6 25 14 - - S 1018,1 0
10.08.2018 21:00:00 17,4 12,2 25 14 - - SSW 1018,5 12
10.08.2018 20:00:00 18,0 10,6 29 16 - - SW 1018,5 48
10.08.2018 19:00:00 16,6 12,2 29 16 61 33 SW 1018,9 0
10.08.2018 18:00:00 15,6 11,5 54 29 65 35 SW 1019,4 6
10.08.2018 17:00:00 17,1 10,6 32 18 - - WSW 1019,4 6
10.08.2018 16:00:00 15,9 11,6 40 21 76 41 SW 1019,4 6
10.08.2018 15:00:00 17,9 10,0 25 14 54 29 SW 1019,1 12
10.08.2018 14:00:00 17,0 11,4 47 25 - - WSW 1018,5 18
10.08.2018 13:00:00 18,2 10,9 40 21 61 33 SW 1018,3 54
10.08.2018 12:00:00 17,6 12,0 47 25 54 29 SW 1017,8 60
10.08.2018 11:00:00 16,1 11,7 50 27 - - SW 1017,4 36
10.08.2018 10:00:00 16,0 11,2 58 31 90 49 WSW 1016,6 12
10.08.2018 09:00:00 17,3 10,7 58 31 76 41 W 1014,8 30
10.08.2018 08:00:00 17,0 12,8 58 31 - - W 1013,8 0
10.08.2018 07:00:00 16,3 13,1 54 29 79 43 W 1012,8 0
10.08.2018 06:00:00 17,1 14,5 68 37 90 49 W 1011,0 0
10.08.2018 05:00:00 17,6 15,5 65 35 - - W 1009,1 0
10.08.2018 04:00:00 16,3 15,4 68 37 86 47 SW 1007,6 0
10.08.2018 03:00:00 17,7 16,3 76 41 104 56 SW 1006,0 0

tt = Température de l'air
td = dewpoint
ff = Vitesse du vent
fx = gusts
dd = Direction du vent
ppp = reduced air pressure
sd = Ensoleillement

stations d'obs. à proximité